createdAt,value
2023-05-14T00:04:34.878Z,51.9
2023-05-14T00:09:52.811Z,52.1
2023-05-14T00:15:11.091Z,51.5
2023-05-14T00:20:29.244Z,52.5
2023-05-14T00:25:47.776Z,51.7
2023-05-14T00:30:50.529Z,52.2
2023-05-14T00:36:09.040Z,52.1
2023-05-14T00:41:27.194Z,52.5
2023-05-14T00:46:45.732Z,52.1
2023-05-14T00:52:04.142Z,52
2023-05-14T00:57:22.286Z,52.6
2023-05-14T01:02:40.994Z,52.8
2023-05-14T01:07:59.063Z,52.2
2023-05-14T01:13:17.426Z,52.6
2023-05-14T01:18:36.144Z,52.9
2023-05-14T01:23:54.562Z,52.1
2023-05-14T01:29:12.737Z,52.3
2023-05-14T01:34:31.112Z,52.5
2023-05-14T01:39:49.689Z,52.4
2023-05-14T01:45:07.882Z,52.5
2023-05-14T01:50:26.578Z,52.8
2023-05-14T01:55:44.950Z,52.9
2023-05-14T02:01:03.143Z,52.2
2023-05-14T02:06:21.384Z,52.2
2023-05-14T02:11:39.712Z,52.2
2023-05-14T02:16:58.022Z,52.8
2023-05-14T02:22:16.183Z,53.1
2023-05-14T02:27:34.735Z,52.1
2023-05-14T02:32:53.430Z,52.3
2023-05-14T02:38:11.776Z,52.3
2023-05-14T02:43:30.400Z,52.7
2023-05-14T02:48:48.556Z,52.7
2023-05-14T02:54:06.920Z,52.7
2023-05-14T02:59:26.499Z,53.1
2023-05-14T03:04:45.268Z,52.6
2023-05-14T03:10:03.673Z,53.3
2023-05-14T03:15:21.993Z,52.9
2023-05-14T03:20:40.359Z,52.7
2023-05-14T03:25:43.144Z,52.9
2023-05-14T03:31:02.058Z,52.8
2023-05-14T03:36:20.061Z,51.4
2023-05-14T03:41:38.257Z,52.7
2023-05-14T03:46:56.313Z,52.6
2023-05-14T03:52:14.706Z,51.8
2023-05-14T03:57:33.119Z,52.4
2023-05-14T04:02:51.684Z,51.9
2023-05-14T04:08:09.881Z,52.3
2023-05-14T04:13:28.485Z,51.9
2023-05-14T04:18:46.700Z,52.5
2023-05-14T04:24:04.971Z,51.4
2023-05-14T04:29:23.332Z,52.1
2023-05-14T04:34:41.577Z,52.1
2023-05-14T04:39:59.912Z,52.7
2023-05-14T04:45:18.136Z,52
2023-05-14T04:50:36.505Z,52.3
2023-05-14T04:55:54.846Z,52.4
2023-05-14T05:01:13.384Z,52.6
2023-05-14T05:06:31.626Z,51.3
2023-05-14T05:11:49.738Z,51.9
2023-05-14T05:17:08.312Z,52.6
2023-05-14T05:22:26.844Z,52
2023-05-14T05:27:44.983Z,51.6
2023-05-14T05:33:03.503Z,51.7
2023-05-14T05:38:21.931Z,51.6
2023-05-14T05:43:40.260Z,51.7
2023-05-14T05:48:58.884Z,52
2023-05-14T05:54:17.451Z,52.2
2023-05-14T05:59:35.894Z,51.8
2023-05-14T06:04:54.341Z,51.7
2023-05-14T06:10:12.596Z,53
2023-05-14T06:15:30.744Z,51.9
2023-05-14T06:20:49.292Z,51.9
2023-05-14T06:26:07.814Z,52.6
2023-05-14T06:31:26.074Z,52.1
2023-05-14T06:36:44.275Z,52.3
2023-05-14T06:42:02.644Z,52.4
2023-05-14T06:47:21.031Z,52.3
2023-05-14T06:52:39.438Z,51.8
2023-05-14T06:57:57.959Z,51.3
2023-05-14T07:03:16.327Z,52
2023-05-14T07:08:34.933Z,52.4
2023-05-14T07:13:52.895Z,51.7
2023-05-14T07:19:11.360Z,50.8
2023-05-14T07:24:29.768Z,50.7
2023-05-14T07:29:48.041Z,50.3
2023-05-14T07:35:06.624Z,50.1
2023-05-14T07:40:25.529Z,50.9
2023-05-14T07:45:44.179Z,49.1
2023-05-14T07:51:02.510Z,48.1
2023-05-14T07:56:21.066Z,45.8
2023-05-14T08:01:40.422Z,45.8
2023-05-14T08:06:58.729Z,45.5
2023-05-14T08:12:16.928Z,47
2023-05-14T08:17:35.219Z,47.4
2023-05-14T08:22:53.565Z,48
2023-05-14T08:28:11.776Z,47.1
2023-05-14T08:33:30.186Z,47.6
2023-05-14T08:38:48.491Z,48.9
2023-05-14T08:44:06.861Z,47.8
2023-05-14T08:49:25.278Z,48.6
2023-05-14T08:54:43.608Z,48.7
2023-05-14T09:00:02.169Z,49.5
2023-05-14T09:05:20.560Z,49.4
2023-05-14T09:10:38.927Z,49.8
2023-05-14T09:15:57.268Z,51.2
2023-05-14T09:21:15.689Z,51
2023-05-14T09:26:34.014Z,51.6
2023-05-14T09:31:52.787Z,51.7
2023-05-14T09:37:11.036Z,51.5
2023-05-14T09:42:28.989Z,51.3
2023-05-14T09:47:47.757Z,51.7
2023-05-14T09:53:05.803Z,50.9
2023-05-14T09:58:24.342Z,51.8
2023-05-14T10:03:27.184Z,51.8
2023-05-14T10:08:45.367Z,51.7
2023-05-14T10:14:03.734Z,51.6
2023-05-14T10:19:22.528Z,51.7
2023-05-14T10:24:41.175Z,51.8
2023-05-14T10:29:59.496Z,51.2
2023-05-14T10:35:17.517Z,51.1
2023-05-14T10:40:35.991Z,51.8
2023-05-14T10:45:54.511Z,51.9
2023-05-14T10:51:13.161Z,51.2
2023-05-14T10:56:31.628Z,51.4
2023-05-14T11:01:50.059Z,51.1
2023-05-14T11:07:09.337Z,51.5
2023-05-14T11:12:27.533Z,51.4
2023-05-14T11:17:45.993Z,50.5
2023-05-14T11:22:48.822Z,50.8
2023-05-14T11:28:07.428Z,51.6
2023-05-14T11:33:25.557Z,51.9
2023-05-14T11:38:43.932Z,51.5
2023-05-14T11:44:02.094Z,52
2023-05-14T12:33:28.532Z,52.2
2023-05-14T12:38:47.153Z,52.2
2023-05-14T12:44:05.448Z,52.9
2023-05-14T12:49:24.072Z,52.8
2023-05-14T12:54:43.889Z,52.1
2023-05-14T13:00:02.059Z,53.2
2023-05-14T13:05:20.654Z,52.4
2023-05-14T13:10:39.006Z,52.5
2023-05-14T13:15:57.611Z,53.2
2023-05-14T13:21:15.848Z,52.6
2023-05-14T13:26:34.180Z,52.5
2023-05-14T13:31:52.534Z,53.2
2023-05-14T13:37:11.108Z,53.5
2023-05-14T13:42:29.597Z,53
2023-05-14T13:47:51.909Z,53.2
2023-05-14T13:53:10.356Z,52.8
2023-05-14T13:58:28.861Z,52.8
2023-05-14T14:03:47.632Z,53.8
2023-05-14T14:09:07.279Z,53.2
2023-05-14T14:14:25.819Z,54.3
2023-05-14T14:19:44.213Z,54.6
2023-05-14T14:25:02.431Z,55.3
2023-05-14T14:30:20.764Z,54.8
2023-05-14T14:35:39.149Z,54.4
2023-05-14T14:40:57.730Z,53.8
2023-05-14T14:46:15.967Z,54
2023-05-14T14:51:33.958Z,53.9
2023-05-14T14:56:52.531Z,55.6
2023-05-14T15:02:10.974Z,55.1
2023-05-14T15:07:29.337Z,56.8
2023-05-14T15:12:47.592Z,55.9
2023-05-14T15:18:05.855Z,55.4
2023-05-14T15:23:24.039Z,55
2023-05-14T15:28:42.428Z,54.8
2023-05-14T15:34:00.777Z,54.6
2023-05-14T15:39:19.324Z,54.4
2023-05-14T15:44:39.444Z,54.6
2023-05-14T15:49:57.583Z,55.1
2023-05-14T15:55:15.957Z,55.3
2023-05-14T16:00:34.157Z,54.7
2023-05-14T16:05:52.910Z,55.2
2023-05-14T16:11:14.296Z,54.9
2023-05-14T16:16:32.881Z,55.3
2023-05-14T16:21:51.036Z,55.3
2023-05-14T16:27:09.188Z,55.7
2023-05-14T16:32:27.701Z,54.6
2023-05-14T16:37:46.008Z,54.9
2023-05-14T16:43:04.424Z,55
2023-05-14T16:48:22.998Z,55.6
2023-05-14T16:53:41.763Z,55.4
2023-05-14T16:58:59.931Z,55.2
2023-05-14T17:04:18.717Z,54.1
2023-05-14T17:09:37.518Z,56.7
2023-05-14T17:14:55.720Z,57.8
2023-05-14T17:20:20.005Z,57.2
2023-05-14T17:25:38.333Z,56.7
2023-05-14T17:30:56.636Z,57.1
2023-05-14T17:36:15.188Z,56.6
2023-05-14T17:41:33.781Z,57.4
2023-05-14T17:46:52.349Z,57.8
2023-05-14T17:52:10.724Z,57.1
2023-05-14T17:57:28.872Z,57.7
2023-05-14T18:02:47.665Z,57.9
2023-05-14T18:08:06.059Z,58.8
2023-05-14T18:13:24.488Z,58.2
2023-05-14T18:18:43.061Z,58.6
2023-05-14T18:24:01.070Z,58.4
2023-05-14T18:29:19.419Z,59.4
2023-05-14T18:34:37.890Z,58.9
2023-05-14T18:39:56.296Z,58.9
2023-05-14T18:45:14.656Z,59.1
2023-05-14T18:50:33.112Z,59.2
2023-05-14T18:55:35.926Z,58.7
2023-05-14T19:00:54.470Z,58.8
2023-05-14T19:06:12.450Z,58.9
2023-05-14T19:11:30.445Z,59
2023-05-14T19:16:48.567Z,58.8
2023-05-14T19:22:07.349Z,58.8
2023-05-14T19:27:25.748Z,58.4
2023-05-14T19:32:44.246Z,58.3
2023-05-14T19:38:03.715Z,58
2023-05-14T19:43:22.165Z,59
2023-05-14T19:48:43.442Z,58.8
2023-05-14T19:54:01.807Z,58.8
2023-05-14T19:59:20.356Z,57.7
2023-05-14T20:04:38.594Z,57.6
2023-05-14T20:09:56.562Z,58
2023-05-14T20:15:14.878Z,57.1
2023-05-14T20:20:34.453Z,57.2
2023-05-14T20:25:52.693Z,57.6
2023-05-14T20:31:11.247Z,57
2023-05-14T20:36:29.644Z,57.6
2023-05-14T20:41:48.263Z,57.2
2023-05-14T20:47:06.502Z,57.7
2023-05-14T20:52:24.666Z,57.5
2023-05-14T20:57:44.053Z,56.8
2023-05-14T21:03:03.243Z,57.4
2023-05-14T21:08:21.376Z,57.2
2023-05-14T21:13:39.543Z,56.7
2023-05-14T21:18:57.823Z,56.8
2023-05-14T21:24:16.323Z,56.8
2023-05-14T21:29:34.436Z,56.5
2023-05-14T21:34:52.841Z,57
2023-05-14T21:40:11.433Z,56.4
2023-05-14T21:45:30.228Z,56.5
2023-05-14T21:50:48.888Z,56.1
2023-05-14T21:56:07.221Z,56.1
2023-05-14T22:01:25.583Z,56.8
2023-05-14T22:06:44.073Z,56.5
2023-05-14T22:12:02.403Z,56.1
2023-05-14T22:17:21.209Z,56.1
2023-05-14T22:22:39.645Z,56.6
2023-05-14T22:27:58.006Z,56.1
2023-05-14T22:33:16.363Z,56.1
2023-05-14T22:38:34.449Z,56.9
2023-05-14T22:43:52.680Z,56.2
2023-05-14T22:49:10.841Z,56.5
2023-05-14T22:54:29.034Z,55.9
2023-05-14T22:59:47.203Z,56.4
2023-05-14T23:05:05.353Z,56.6
2023-05-14T23:10:23.740Z,56.7
2023-05-14T23:15:42.397Z,56.1
2023-05-14T23:21:01.038Z,56.1
2023-05-14T23:26:19.464Z,56.9
2023-05-14T23:31:37.475Z,56.3
2023-05-14T23:36:55.452Z,56.8
2023-05-14T23:42:13.725Z,56.4
2023-05-14T23:47:32.092Z,56.3
2023-05-14T23:52:50.623Z,57.4
2023-05-14T23:58:08.917Z,56.3
